Airport ID:KCCB
Update Time (UTC):31/05/2020 07:38
Wind Speed (Knots):3
Wind Direction (Magnetic):210
Temperature (°C):16
Dew Point (°C):13.1
Humidity (%):83
Altimeter (inHg):29.94
Density Altitude (Feet):
Visibility (Miles):10
Clouds (Hundreds of feet):\\\\
Present Weather:
METAR:METAR KCCB 310735Z AUTO 23003KT 10SM 16/13 A2994 RMK AO2

The data displayed is for advisory purposes only and is not to be used for flight planning or operations.